createdAt,value
2016-11-03T00:00:07.067Z,0
2016-11-03T00:01:15.759Z,0
2016-11-03T00:02:24.449Z,0
2016-11-03T00:03:33.192Z,0
2016-11-03T00:04:41.883Z,0
2016-11-03T00:05:50.576Z,0
2016-11-03T00:06:59.652Z,0
2016-11-03T00:08:08.348Z,0
2016-11-03T00:09:17.078Z,0
2016-11-03T00:10:25.771Z,0
2016-11-03T00:11:34.464Z,0
2016-11-03T00:12:43.154Z,0
2016-11-03T00:13:51.882Z,0
2016-11-03T00:15:00.573Z,0
2016-11-03T00:16:09.267Z,0
2016-11-03T00:17:17.958Z,0
2016-11-03T00:18:26.648Z,0
2016-11-03T00:19:35.350Z,0
2016-11-03T00:20:44.044Z,0
2016-11-03T00:21:52.734Z,0
2016-11-03T00:23:01.428Z,0
2016-11-03T00:24:10.118Z,0
2016-11-03T00:25:18.808Z,0
2016-11-03T00:26:27.506Z,0
2016-11-03T00:27:36.204Z,0
2016-11-03T00:28:44.903Z,0
2016-11-03T00:29:53.591Z,0
2016-11-03T00:31:02.283Z,0
2016-11-03T00:32:10.972Z,0
2016-11-03T00:33:19.659Z,0
2016-11-03T00:34:28.350Z,0
2016-11-03T00:35:37.043Z,0
2016-11-03T00:36:45.730Z,0
2016-11-03T00:37:54.434Z,0
2016-11-03T00:39:03.127Z,0
2016-11-03T00:40:11.847Z,0
2016-11-03T00:41:20.539Z,0
2016-11-03T00:42:29.237Z,0
2016-11-03T00:43:37.929Z,0
2016-11-03T00:44:46.624Z,0
2016-11-03T00:45:55.631Z,0
2016-11-03T00:47:04.326Z,0
2016-11-03T00:48:13.027Z,0
2016-11-03T00:49:21.722Z,0
2016-11-03T00:50:30.409Z,0
2016-11-03T00:51:39.100Z,0
2016-11-03T00:52:47.788Z,0
2016-11-03T00:53:56.491Z,0
2016-11-03T00:55:05.209Z,0
2016-11-03T00:56:13.907Z,0
2016-11-03T00:57:22.605Z,0
2016-11-03T00:58:31.297Z,0
2016-11-03T00:59:40.026Z,0
2016-11-03T01:00:48.718Z,0
2016-11-03T01:01:57.408Z,0
2016-11-03T01:03:06.096Z,0
2016-11-03T01:04:14.785Z,0
2016-11-03T01:05:23.493Z,0
2016-11-03T01:06:32.178Z,0
2016-11-03T01:07:40.871Z,0
2016-11-03T01:08:49.556Z,0
2016-11-03T01:09:58.248Z,0
2016-11-03T01:11:06.938Z,0
2016-11-03T01:12:15.635Z,0
2016-11-03T01:13:24.329Z,0
2016-11-03T01:14:33.022Z,0
2016-11-03T01:15:41.711Z,0
2016-11-03T01:16:50.397Z,0
2016-11-03T01:17:59.082Z,0
2016-11-03T01:19:07.783Z,0
2016-11-03T01:20:16.794Z,0
2016-11-03T01:21:25.799Z,0
2016-11-03T01:22:34.529Z,0
2016-11-03T01:23:43.218Z,0
2016-11-03T01:24:51.913Z,0
2016-11-03T01:26:00.604Z,0
2016-11-03T01:27:09.607Z,0
2016-11-03T01:28:18.309Z,0
2016-11-03T01:29:26.998Z,0
2016-11-03T01:30:35.733Z,0
2016-11-03T01:31:44.419Z,0
2016-11-03T01:32:53.125Z,0
2016-11-03T01:34:01.814Z,0
2016-11-03T01:35:10.509Z,0
2016-11-03T01:36:19.216Z,0
2016-11-03T01:37:27.914Z,0
2016-11-03T01:38:36.648Z,0
2016-11-03T01:39:45.397Z,0
2016-11-03T01:40:54.093Z,0
2016-11-03T01:42:03.099Z,0
2016-11-03T01:43:11.790Z,0
2016-11-03T01:44:20.482Z,0
2016-11-03T01:45:29.171Z,0
2016-11-03T01:46:37.865Z,0
2016-11-03T01:47:46.558Z,0
2016-11-03T01:48:55.248Z,0
2016-11-03T01:50:03.940Z,0
2016-11-03T01:51:12.632Z,0
2016-11-03T01:52:21.366Z,0
2016-11-03T01:53:30.058Z,0
2016-11-03T01:54:38.747Z,0
2016-11-03T01:55:47.432Z,0
2016-11-03T01:56:56.127Z,0
2016-11-03T01:58:04.814Z,0
2016-11-03T01:59:13.515Z,0
2016-11-03T02:00:22.246Z,0
2016-11-03T02:01:30.965Z,0
2016-11-03T02:02:39.659Z,0
2016-11-03T02:03:48.349Z,0
2016-11-03T02:04:57.036Z,0
2016-11-03T02:06:06.055Z,0
2016-11-03T02:07:14.758Z,0
2016-11-03T02:08:23.491Z,0
2016-11-03T02:09:32.183Z,0
2016-11-03T02:10:40.873Z,0
2016-11-03T02:11:49.559Z,0
2016-11-03T02:12:58.251Z,0
2016-11-03T02:14:06.941Z,0
2016-11-03T02:15:15.628Z,0
2016-11-03T02:16:24.355Z,0
2016-11-03T02:17:33.046Z,0
2016-11-03T02:18:41.734Z,0
2016-11-03T02:19:50.423Z,0
2016-11-03T02:20:59.113Z,0
2016-11-03T02:22:08.122Z,0
2016-11-03T02:23:17.128Z,0
2016-11-03T02:24:25.820Z,0
2016-11-03T02:25:34.512Z,0
2016-11-03T02:26:43.201Z,0
2016-11-03T02:27:51.892Z,0
2016-11-03T02:29:00.893Z,0
2016-11-03T02:30:09.586Z,0
2016-11-03T02:31:18.284Z,0
2016-11-03T02:32:27.003Z,0
2016-11-03T02:33:35.693Z,0
2016-11-03T02:34:44.419Z,0
2016-11-03T02:35:53.113Z,0
2016-11-03T02:37:01.804Z,0
2016-11-03T02:38:10.498Z,0
2016-11-03T02:39:19.280Z,0
2016-11-03T02:40:27.980Z,0
2016-11-03T02:41:36.675Z,0
2016-11-03T02:42:45.363Z,0
2016-11-03T02:43:54.368Z,0
2016-11-03T02:45:03.061Z,0
2016-11-03T02:46:11.750Z,0
2016-11-03T02:47:20.444Z,0
2016-11-03T02:48:29.136Z,0
2016-11-03T02:49:37.826Z,0
2016-11-03T02:50:46.512Z,0
2016-11-03T02:51:55.200Z,0
2016-11-03T02:53:03.892Z,0
2016-11-03T02:54:12.581Z,0
2016-11-03T02:55:21.274Z,0
2016-11-03T02:56:30.282Z,0
2016-11-03T02:57:38.971Z,0
2016-11-03T02:58:47.665Z,0
2016-11-03T02:59:56.351Z,0
2016-11-03T03:01:05.047Z,0
2016-11-03T03:02:13.740Z,0
2016-11-03T03:03:22.431Z,0
2016-11-03T03:04:31.120Z,0
2016-11-03T03:05:39.814Z,0
2016-11-03T03:06:48.505Z,0
2016-11-03T03:07:57.191Z,0
2016-11-03T03:09:05.877Z,0
2016-11-03T03:10:14.576Z,0
2016-11-03T03:11:23.273Z,0
2016-11-03T03:12:31.964Z,0
2016-11-03T03:13:40.654Z,0
2016-11-03T03:14:49.342Z,0
2016-11-03T03:15:58.036Z,0
2016-11-03T03:17:06.729Z,0
2016-11-03T03:18:15.416Z,0
2016-11-03T03:19:24.105Z,0
2016-11-03T03:20:32.835Z,0
2016-11-03T03:21:41.522Z,0
2016-11-03T03:22:50.210Z,0
2016-11-03T03:23:58.909Z,0
2016-11-03T03:25:07.598Z,0
2016-11-03T03:26:16.295Z,0
2016-11-03T03:27:24.999Z,0
2016-11-03T03:28:33.690Z,0
2016-11-03T03:29:42.381Z,0
2016-11-03T03:30:51.068Z,0
2016-11-03T03:31:59.807Z,0
2016-11-03T03:33:08.502Z,0
2016-11-03T03:34:17.196Z,0
2016-11-03T03:35:25.884Z,0
2016-11-03T03:36:34.887Z,0
2016-11-03T03:37:43.576Z,0
2016-11-03T03:38:52.267Z,0
2016-11-03T03:40:00.969Z,0
2016-11-03T03:41:09.654Z,0
2016-11-03T03:42:18.341Z,0
2016-11-03T03:43:27.033Z,0
2016-11-03T03:44:35.741Z,0
2016-11-03T03:45:44.437Z,0
2016-11-03T03:46:53.126Z,0
2016-11-03T03:48:01.813Z,0
2016-11-03T03:49:10.506Z,0
2016-11-03T03:50:19.206Z,0
2016-11-03T03:51:27.900Z,0
2016-11-03T03:52:36.586Z,0
2016-11-03T03:53:45.282Z,0
2016-11-03T03:54:53.981Z,0
2016-11-03T03:56:02.676Z,0
2016-11-03T03:57:11.377Z,0
2016-11-03T03:58:20.070Z,0
2016-11-03T03:59:28.763Z,0
2016-11-03T04:00:37.457Z,0
2016-11-03T04:01:46.144Z,0
2016-11-03T04:02:54.837Z,0
2016-11-03T04:04:03.529Z,0
2016-11-03T04:05:12.222Z,0
2016-11-03T04:06:20.915Z,0
2016-11-03T04:07:29.605Z,0
2016-11-03T04:08:38.311Z,0
2016-11-03T04:09:47.048Z,0
2016-11-03T04:10:55.733Z,0
2016-11-03T04:12:04.418Z,0
2016-11-03T04:13:13.419Z,0
2016-11-03T04:14:22.123Z,0
2016-11-03T04:15:30.810Z,0
2016-11-03T04:16:39.502Z,0
2016-11-03T04:17:48.188Z,0
2016-11-03T04:18:56.876Z,0
2016-11-03T04:20:05.565Z,0
2016-11-03T04:21:14.256Z,0
2016-11-03T04:22:22.947Z,0
2016-11-03T04:23:31.640Z,0
2016-11-03T04:24:40.349Z,0
2016-11-03T04:25:49.039Z,0
2016-11-03T04:26:57.757Z,0
2016-11-03T04:28:06.445Z,0
2016-11-03T04:29:15.132Z,0
2016-11-03T04:30:23.827Z,0
2016-11-03T04:31:32.629Z,0
2016-11-03T04:32:41.318Z,0
2016-11-03T04:33:50.003Z,0
2016-11-03T04:34:58.722Z,0
2016-11-03T04:36:07.452Z,0
2016-11-03T04:37:16.184Z,0
2016-11-03T04:38:24.873Z,0
2016-11-03T04:39:33.563Z,0
2016-11-03T04:40:42.256Z,0
2016-11-03T04:41:50.951Z,0
2016-11-03T04:42:59.649Z,0
2016-11-03T04:44:08.336Z,0
2016-11-03T04:45:17.024Z,0
2016-11-03T04:46:25.717Z,0
2016-11-03T04:47:34.402Z,0
2016-11-03T04:48:43.385Z,0
2016-11-03T04:49:52.086Z,0
2016-11-03T04:51:00.773Z,0
2016-11-03T04:52:09.468Z,0
2016-11-03T04:53:18.471Z,0
2016-11-03T04:54:27.163Z,0
2016-11-03T04:55:35.888Z,0
2016-11-03T04:56:44.573Z,0
2016-11-03T04:57:53.260Z,0
2016-11-03T04:59:01.947Z,0
2016-11-03T05:00:10.640Z,0
2016-11-03T05:01:19.335Z,0
2016-11-03T05:02:28.030Z,0
2016-11-03T05:03:36.723Z,0
2016-11-03T05:04:45.409Z,0
2016-11-03T05:05:54.103Z,0
2016-11-03T05:07:02.796Z,0
2016-11-03T05:08:11.486Z,0
2016-11-03T05:09:20.180Z,0
2016-11-03T05:10:28.895Z,0
2016-11-03T05:11:37.580Z,0
2016-11-03T05:12:46.305Z,0
2016-11-03T05:13:54.995Z,0
2016-11-03T05:15:03.679Z,0
2016-11-03T05:16:12.372Z,0
2016-11-03T05:17:21.065Z,0
2016-11-03T05:18:29.763Z,0
2016-11-03T05:19:38.452Z,0
2016-11-03T05:20:47.147Z,0
2016-11-03T05:21:55.851Z,0
2016-11-03T05:23:04.585Z,0
2016-11-03T05:24:13.297Z,0
2016-11-03T05:25:21.989Z,0
2016-11-03T05:26:30.709Z,0
2016-11-03T05:27:39.410Z,0
2016-11-03T05:28:48.104Z,0
2016-11-03T05:29:56.798Z,0
2016-11-03T05:31:05.491Z,0
2016-11-03T05:32:14.179Z,0
2016-11-03T05:33:23.184Z,0
2016-11-03T05:34:31.872Z,0
2016-11-03T05:35:40.564Z,0
2016-11-03T05:36:49.256Z,0
2016-11-03T05:37:57.976Z,0
2016-11-03T05:39:06.671Z,0
2016-11-03T05:40:15.366Z,0
2016-11-03T05:41:24.058Z,0
2016-11-03T05:42:33.061Z,0
2016-11-03T05:43:41.756Z,0
2016-11-03T05:44:50.444Z,0
2016-11-03T05:45:59.130Z,0
2016-11-03T05:47:07.852Z,0
2016-11-03T05:48:16.540Z,0
2016-11-03T05:49:25.228Z,0
2016-11-03T05:50:33.914Z,0
2016-11-03T05:51:42.602Z,0
2016-11-03T05:52:51.286Z,0
2016-11-03T05:53:59.970Z,0
2016-11-03T05:55:08.657Z,0
2016-11-03T05:56:17.347Z,0
2016-11-03T05:57:26.038Z,0
2016-11-03T05:58:34.735Z,0
2016-11-03T05:59:43.431Z,0
2016-11-03T06:00:52.151Z,0
2016-11-03T06:02:00.843Z,0
2016-11-03T06:03:09.541Z,0
2016-11-03T06:04:18.229Z,0
2016-11-03T06:05:26.927Z,0
2016-11-03T06:06:35.612Z,0
2016-11-03T06:07:44.302Z,0
2016-11-03T06:08:52.996Z,0
2016-11-03T06:10:01.689Z,0
2016-11-03T06:11:10.384Z,0
2016-11-03T06:12:19.085Z,0
2016-11-03T06:13:27.774Z,0
2016-11-03T06:14:36.472Z,0
2016-11-03T06:15:45.159Z,0
2016-11-03T06:16:53.843Z,0
2016-11-03T06:18:02.534Z,0
2016-11-03T06:19:11.224Z,0
2016-11-03T06:20:19.947Z,0
2016-11-03T06:21:28.638Z,0
2016-11-03T06:22:37.329Z,0
2016-11-03T06:23:46.023Z,0
2016-11-03T06:24:54.716Z,0
2016-11-03T06:26:03.406Z,0
2016-11-03T06:27:12.149Z,0
2016-11-03T06:28:21.157Z,0
2016-11-03T06:29:29.850Z,0
2016-11-03T06:30:38.544Z,0
2016-11-03T06:31:47.239Z,0
2016-11-03T06:32:55.932Z,0
2016-11-03T06:34:04.621Z,0
2016-11-03T06:35:13.318Z,0
2016-11-03T06:36:22.011Z,5
2016-11-03T06:37:30.736Z,5
2016-11-03T06:38:39.425Z,5
2016-11-03T06:39:48.117Z,5
2016-11-03T06:40:56.850Z,5
2016-11-03T06:42:05.541Z,5
2016-11-03T06:43:14.285Z,5
2016-11-03T06:44:23.558Z,5
2016-11-03T06:45:32.248Z,10
2016-11-03T06:46:40.937Z,10
2016-11-03T06:47:49.627Z,10
2016-11-03T06:48:58.353Z,10
2016-11-03T06:50:07.043Z,10
2016-11-03T06:51:15.736Z,10
2016-11-03T06:52:24.426Z,15
2016-11-03T06:53:33.146Z,15
2016-11-03T06:54:41.835Z,15
2016-11-03T06:55:50.529Z,15
2016-11-03T06:56:59.258Z,20
2016-11-03T06:58:07.945Z,20
2016-11-03T06:59:16.643Z,20
2016-11-03T07:00:25.330Z,20
2016-11-03T07:01:34.235Z,20
2016-11-03T07:02:42.947Z,25
2016-11-03T07:03:51.644Z,25
2016-11-03T07:05:00.337Z,25
2016-11-03T07:06:09.039Z,30
2016-11-03T07:07:17.734Z,30
2016-11-03T07:08:26.422Z,30
2016-11-03T07:09:35.117Z,30
2016-11-03T07:10:43.852Z,35
2016-11-03T07:11:52.540Z,35
2016-11-03T07:13:01.235Z,35
2016-11-03T07:14:09.925Z,35
2016-11-03T07:15:18.625Z,40
2016-11-03T07:16:27.311Z,40
2016-11-03T07:17:36.003Z,45
2016-11-03T07:18:44.689Z,45
2016-11-03T07:19:53.379Z,45
2016-11-03T07:21:02.114Z,50
2016-11-03T07:22:10.804Z,50
2016-11-03T07:23:19.522Z,50
2016-11-03T07:24:28.210Z,50
2016-11-03T07:25:36.906Z,55
2016-11-03T07:26:45.596Z,55
2016-11-03T07:27:54.283Z,55
2016-11-03T07:29:02.972Z,60
2016-11-03T07:30:11.974Z,60
2016-11-03T07:31:20.665Z,60
2016-11-03T07:32:29.358Z,60
2016-11-03T07:33:38.085Z,65
2016-11-03T07:34:46.775Z,65
2016-11-03T07:35:55.469Z,65
2016-11-03T07:37:04.159Z,70
2016-11-03T07:38:12.854Z,70
2016-11-03T07:39:21.548Z,70
2016-11-03T07:40:30.548Z,70
2016-11-03T07:41:39.240Z,75
2016-11-03T07:42:47.933Z,75
2016-11-03T07:43:56.626Z,75
2016-11-03T07:45:05.321Z,75
2016-11-03T07:46:14.011Z,80
2016-11-03T07:47:22.706Z,80
2016-11-03T07:48:31.393Z,80
2016-11-03T07:49:40.434Z,80
2016-11-03T07:50:49.130Z,85
2016-11-03T07:51:57.821Z,85
2016-11-03T07:53:06.522Z,85
2016-11-03T07:54:15.211Z,85
2016-11-03T07:55:23.904Z,90
2016-11-03T07:56:32.597Z,90
2016-11-03T07:57:41.284Z,90
2016-11-03T07:58:49.975Z,90
2016-11-03T07:59:58.666Z,95
2016-11-03T08:01:07.353Z,95
2016-11-03T08:02:16.047Z,95
2016-11-03T08:03:24.747Z,95
2016-11-03T08:04:33.441Z,100
2016-11-03T08:05:42.130Z,100
2016-11-03T08:06:50.860Z,100
2016-11-03T08:07:59.584Z,100
2016-11-03T08:09:08.274Z,105
2016-11-03T08:10:16.972Z,105
2016-11-03T08:11:26.290Z,105
2016-11-03T08:12:34.983Z,105
2016-11-03T08:13:43.735Z,110
2016-11-03T08:14:52.425Z,110
2016-11-03T08:16:01.160Z,110
2016-11-03T08:17:09.853Z,105
2016-11-03T08:18:18.547Z,110
2016-11-03T08:19:27.238Z,110
2016-11-03T08:20:35.933Z,115
2016-11-03T08:21:44.633Z,115
2016-11-03T08:22:53.327Z,115
2016-11-03T08:24:02.021Z,115
2016-11-03T08:25:10.739Z,115
2016-11-03T08:26:19.437Z,115
2016-11-03T08:27:28.130Z,115
2016-11-03T08:28:36.860Z,120
2016-11-03T08:29:45.551Z,120
2016-11-03T08:30:54.248Z,120
2016-11-03T08:32:02.938Z,125
2016-11-03T08:33:12.007Z,125
2016-11-03T08:34:20.708Z,125
2016-11-03T08:35:29.412Z,130
2016-11-03T08:36:38.101Z,130
2016-11-03T08:37:46.807Z,130
2016-11-03T08:38:55.507Z,130
2016-11-03T08:40:04.511Z,130
2016-11-03T08:41:13.207Z,130
2016-11-03T08:42:21.899Z,125
2016-11-03T08:43:30.920Z,125
2016-11-03T08:44:39.614Z,125
2016-11-03T08:45:48.341Z,125
2016-11-03T08:46:57.030Z,125
2016-11-03T08:48:05.724Z,130
2016-11-03T08:49:14.420Z,130
2016-11-03T08:50:23.142Z,130
2016-11-03T08:51:31.866Z,130
2016-11-03T08:52:40.552Z,130
2016-11-03T08:53:49.240Z,130
2016-11-03T08:54:57.933Z,130
2016-11-03T08:56:06.627Z,130
2016-11-03T08:57:15.324Z,130
2016-11-03T08:58:24.015Z,135
2016-11-03T08:59:32.711Z,135
2016-11-03T09:00:41.402Z,135
2016-11-03T09:01:50.092Z,135
2016-11-03T09:02:58.786Z,135
2016-11-03T09:04:07.482Z,135
2016-11-03T09:05:16.186Z,135
2016-11-03T09:06:24.877Z,135
2016-11-03T09:07:33.571Z,135
2016-11-03T09:08:42.269Z,135
2016-11-03T09:09:50.956Z,140
2016-11-03T09:10:59.653Z,140
2016-11-03T09:12:08.347Z,140
2016-11-03T09:13:17.048Z,140
2016-11-03T09:14:26.077Z,140
2016-11-03T09:15:34.768Z,140
2016-11-03T09:16:43.512Z,140
2016-11-03T09:17:52.202Z,140
2016-11-03T09:19:00.896Z,140
2016-11-03T09:20:09.617Z,140
2016-11-03T09:21:18.307Z,145
2016-11-03T09:22:26.998Z,145
2016-11-03T09:23:35.693Z,145
2016-11-03T09:24:44.391Z,145
2016-11-03T09:25:53.076Z,145
2016-11-03T09:27:01.772Z,145
2016-11-03T09:28:10.461Z,145
2016-11-03T09:29:19.190Z,145
2016-11-03T09:30:27.874Z,145
2016-11-03T09:31:36.602Z,150
2016-11-03T09:32:45.289Z,150
2016-11-03T09:33:53.977Z,150
2016-11-03T09:35:02.666Z,150
2016-11-03T09:36:11.363Z,150
2016-11-03T09:37:20.056Z,150
2016-11-03T09:38:28.778Z,150
2016-11-03T09:39:37.467Z,155
2016-11-03T09:40:46.165Z,150
2016-11-03T09:41:54.855Z,150
2016-11-03T09:43:03.545Z,160
2016-11-03T09:44:12.245Z,155
2016-11-03T09:45:20.946Z,155
2016-11-03T09:46:29.681Z,155
2016-11-03T09:47:38.410Z,155
2016-11-03T09:48:47.101Z,155
2016-11-03T09:49:55.792Z,160
2016-11-03T09:51:04.484Z,155
2016-11-03T09:52:13.184Z,155
2016-11-03T09:53:22.189Z,155
2016-11-03T09:54:30.881Z,155
2016-11-03T09:55:39.578Z,160
2016-11-03T09:56:48.290Z,160
2016-11-03T09:57:56.985Z,160
2016-11-03T09:59:05.682Z,160
2016-11-03T10:00:14.378Z,160
2016-11-03T10:01:23.070Z,160
2016-11-03T10:02:31.765Z,165
2016-11-03T10:03:40.456Z,165
2016-11-03T10:04:49.463Z,165
2016-11-03T10:05:58.164Z,170
2016-11-03T10:07:06.857Z,170
2016-11-03T10:08:15.565Z,170
2016-11-03T10:09:24.254Z,175
2016-11-03T10:10:32.950Z,175
2016-11-03T10:11:41.645Z,175
2016-11-03T10:12:50.348Z,175
2016-11-03T10:13:59.041Z,180
2016-11-03T10:15:07.737Z,185
2016-11-03T10:16:16.427Z,190
2016-11-03T10:17:25.118Z,195
2016-11-03T10:18:33.813Z,200
2016-11-03T10:19:42.500Z,205
2016-11-03T10:20:51.188Z,210
2016-11-03T10:21:59.880Z,210
2016-11-03T10:23:08.618Z,210
2016-11-03T10:24:17.304Z,215
2016-11-03T10:25:25.994Z,215
2016-11-03T10:26:34.835Z,215
2016-11-03T10:27:43.524Z,220
2016-11-03T10:28:52.217Z,230
2016-11-03T10:30:00.910Z,265
2016-11-03T10:31:09.609Z,290
2016-11-03T10:32:18.303Z,275
2016-11-03T10:33:27.324Z,275
2016-11-03T10:34:36.069Z,285
2016-11-03T10:35:44.769Z,290
2016-11-03T10:36:53.471Z,305
2016-11-03T10:38:02.198Z,290
2016-11-03T10:39:10.894Z,305
2016-11-03T10:40:19.597Z,295
2016-11-03T10:41:28.294Z,325
2016-11-03T10:42:36.986Z,310
2016-11-03T10:43:45.750Z,295
2016-11-03T10:44:54.444Z,305
2016-11-03T10:46:03.140Z,305
2016-11-03T10:47:11.842Z,275
2016-11-03T10:48:20.575Z,270
2016-11-03T10:49:29.266Z,265
2016-11-03T10:50:37.964Z,270
2016-11-03T10:51:46.659Z,295
2016-11-03T10:52:55.360Z,285
2016-11-03T10:54:04.056Z,280
2016-11-03T10:55:12.751Z,290
2016-11-03T10:56:21.466Z,265
2016-11-03T10:57:30.166Z,260
2016-11-03T10:58:38.863Z,255
2016-11-03T10:59:47.559Z,260
2016-11-03T11:00:56.254Z,255
2016-11-03T11:02:04.944Z,260
2016-11-03T11:03:13.638Z,260
2016-11-03T11:04:22.335Z,260
2016-11-03T11:05:31.033Z,260
2016-11-03T11:06:39.726Z,255
2016-11-03T11:07:48.442Z,255
2016-11-03T11:08:57.270Z,250
2016-11-03T11:10:05.962Z,255
2016-11-03T11:11:14.666Z,255
2016-11-03T11:12:23.416Z,250
2016-11-03T11:13:32.120Z,255
2016-11-03T11:14:40.816Z,255
2016-11-03T11:15:49.515Z,260
2016-11-03T11:16:58.212Z,265
2016-11-03T11:18:06.922Z,260
2016-11-03T11:19:15.649Z,260
2016-11-03T11:20:24.351Z,260
2016-11-03T11:21:33.044Z,260
2016-11-03T11:22:41.741Z,260
2016-11-03T11:23:50.438Z,265
2016-11-03T11:24:59.132Z,260
2016-11-03T11:26:07.826Z,260
2016-11-03T11:27:16.524Z,260
2016-11-03T11:28:25.223Z,255
2016-11-03T11:29:33.922Z,255
2016-11-03T11:30:42.618Z,250
2016-11-03T11:31:51.312Z,250
2016-11-03T11:33:00.008Z,250
2016-11-03T11:34:08.710Z,245
2016-11-03T11:35:17.446Z,245
2016-11-03T11:36:26.144Z,240
2016-11-03T11:37:34.840Z,245
2016-11-03T11:38:43.535Z,245
2016-11-03T11:39:52.235Z,245
2016-11-03T11:41:01.968Z,250
2016-11-03T11:42:10.669Z,245
2016-11-03T11:43:19.377Z,245
2016-11-03T11:44:28.070Z,245
2016-11-03T11:45:36.764Z,240
2016-11-03T11:46:45.468Z,235
2016-11-03T11:47:54.163Z,230
2016-11-03T11:49:02.868Z,235
2016-11-03T11:50:11.562Z,230
2016-11-03T11:51:20.293Z,235
2016-11-03T11:52:28.984Z,235
2016-11-03T11:53:37.714Z,240
2016-11-03T11:54:46.409Z,245
2016-11-03T11:55:55.104Z,245
2016-11-03T11:57:03.799Z,245
2016-11-03T11:58:12.540Z,240
2016-11-03T11:59:21.231Z,245
2016-11-03T12:00:29.927Z,245
2016-11-03T12:01:38.633Z,245
2016-11-03T12:02:47.329Z,245
2016-11-03T12:03:56.019Z,250
2016-11-03T12:05:04.712Z,255
2016-11-03T12:06:13.408Z,260
2016-11-03T12:07:22.148Z,260
2016-11-03T12:08:30.842Z,260
2016-11-03T12:09:39.545Z,270
2016-11-03T12:10:48.248Z,280
2016-11-03T12:11:56.949Z,325
2016-11-03T12:13:05.644Z,320
2016-11-03T12:14:14.338Z,370
2016-11-03T12:15:23.039Z,365
2016-11-03T12:16:31.736Z,370
2016-11-03T12:17:40.435Z,355
2016-11-03T12:18:49.203Z,335
2016-11-03T12:19:57.902Z,300
2016-11-03T12:21:06.602Z,335
2016-11-03T12:22:15.305Z,350
2016-11-03T12:23:24.007Z,370
2016-11-03T12:24:32.707Z,425
2016-11-03T12:25:41.412Z,490
2016-11-03T12:26:50.113Z,415
2016-11-03T12:27:58.856Z,380
2016-11-03T12:29:07.554Z,425
2016-11-03T12:30:16.248Z,360
2016-11-03T12:31:24.981Z,310
2016-11-03T12:32:33.680Z,325
2016-11-03T12:33:42.377Z,350
2016-11-03T12:34:51.077Z,325
2016-11-03T12:35:59.772Z,360
2016-11-03T12:37:08.475Z,415
2016-11-03T12:38:17.231Z,515
2016-11-03T12:39:25.927Z,545
2016-11-03T12:40:34.621Z,515
2016-11-03T12:41:43.314Z,510
2016-11-03T12:42:52.012Z,510
2016-11-03T12:44:00.715Z,510
2016-11-03T12:45:09.412Z,475
2016-11-03T12:46:18.140Z,435
2016-11-03T12:47:26.870Z,470
2016-11-03T12:48:35.568Z,425
2016-11-03T12:49:44.264Z,415
2016-11-03T12:50:52.963Z,360
2016-11-03T12:52:01.687Z,325
2016-11-03T12:53:10.383Z,320
2016-11-03T12:54:19.088Z,335
2016-11-03T12:55:27.786Z,370
2016-11-03T12:56:36.486Z,355
2016-11-03T12:57:45.183Z,355
2016-11-03T12:58:53.884Z,415
2016-11-03T13:00:02.581Z,365
2016-11-03T13:01:11.417Z,340
2016-11-03T13:02:20.120Z,290
2016-11-03T13:03:28.825Z,270
2016-11-03T13:04:37.558Z,245
2016-11-03T13:05:46.263Z,230
2016-11-03T13:06:54.963Z,240
2016-11-03T13:08:03.663Z,260
2016-11-03T13:09:12.403Z,265
2016-11-03T13:10:21.140Z,245
2016-11-03T13:11:29.846Z,250
2016-11-03T13:12:38.542Z,255
2016-11-03T13:13:47.246Z,285
2016-11-03T13:14:55.948Z,255
2016-11-03T13:16:04.984Z,275
2016-11-03T13:17:13.684Z,285
2016-11-03T13:18:22.410Z,290
2016-11-03T13:19:31.116Z,275
2016-11-03T13:20:39.825Z,275
2016-11-03T13:21:48.530Z,270
2016-11-03T13:22:57.232Z,255
2016-11-03T13:24:06.018Z,240
2016-11-03T13:25:14.722Z,230
2016-11-03T13:26:23.419Z,340
2016-11-03T13:27:32.151Z,445
2016-11-03T13:28:40.848Z,405
2016-11-03T13:29:49.858Z,315
2016-11-03T13:30:58.556Z,215
2016-11-03T13:32:07.259Z,195
2016-11-03T13:33:16.280Z,275
2016-11-03T13:34:24.980Z,240
2016-11-03T13:35:33.696Z,325
2016-11-03T13:36:42.397Z,335
2016-11-03T13:37:51.095Z,215
2016-11-03T13:38:59.796Z,160
2016-11-03T13:40:08.494Z,220
2016-11-03T13:41:17.190Z,445
2016-11-03T13:42:25.901Z,515
2016-11-03T13:43:34.606Z,405
2016-11-03T13:44:43.309Z,370
2016-11-03T13:45:52.322Z,260
2016-11-03T13:47:01.051Z,270
2016-11-03T13:48:10.068Z,215
2016-11-03T13:49:18.772Z,150
2016-11-03T13:50:27.467Z,130
2016-11-03T13:51:36.166Z,125
2016-11-03T13:52:44.871Z,125
2016-11-03T13:53:53.566Z,125
2016-11-03T13:55:02.273Z,120
2016-11-03T13:56:10.964Z,120
2016-11-03T13:57:19.662Z,115
2016-11-03T13:58:28.359Z,110
2016-11-03T13:59:37.053Z,110
2016-11-03T14:00:45.752Z,105
2016-11-03T14:01:54.447Z,105
2016-11-03T14:03:03.136Z,105
2016-11-03T14:04:11.847Z,105
2016-11-03T14:05:20.540Z,100
2016-11-03T14:06:29.237Z,100
2016-11-03T14:07:37.936Z,100
2016-11-03T14:08:46.635Z,100
2016-11-03T14:09:55.362Z,95
2016-11-03T14:11:04.060Z,95
2016-11-03T14:12:12.763Z,95
2016-11-03T14:13:21.457Z,95
2016-11-03T14:14:30.153Z,90
2016-11-03T14:15:38.858Z,90
2016-11-03T14:16:47.600Z,90
2016-11-03T14:17:56.330Z,90
2016-11-03T14:19:05.018Z,85
2016-11-03T14:20:13.751Z,85
2016-11-03T14:21:22.452Z,85
2016-11-03T14:22:31.144Z,80
2016-11-03T14:23:39.885Z,80
2016-11-03T14:24:48.582Z,80
2016-11-03T14:25:57.279Z,80
2016-11-03T14:27:05.980Z,75
2016-11-03T14:28:15.002Z,75
2016-11-03T14:29:23.698Z,75
2016-11-03T14:30:32.391Z,75
2016-11-03T14:31:41.100Z,70
2016-11-03T14:32:49.829Z,70
2016-11-03T14:33:58.523Z,70
2016-11-03T14:35:07.247Z,65
2016-11-03T14:36:16.968Z,65
2016-11-03T14:37:26.008Z,60
2016-11-03T14:38:35.733Z,60
2016-11-03T14:39:44.815Z,60
2016-11-03T14:40:54.038Z,60
2016-11-03T14:42:03.084Z,55
2016-11-03T14:43:11.999Z,55
2016-11-03T14:44:20.707Z,50
2016-11-03T14:45:29.408Z,50
2016-11-03T14:46:38.103Z,50
2016-11-03T14:47:46.799Z,45
2016-11-03T14:48:55.496Z,45
2016-11-03T14:50:04.201Z,45
2016-11-03T14:51:12.939Z,40
2016-11-03T14:52:21.643Z,40
2016-11-03T14:53:30.378Z,40
2016-11-03T14:54:39.396Z,35
2016-11-03T14:55:48.085Z,35
2016-11-03T14:56:56.777Z,35
2016-11-03T14:58:05.472Z,30
2016-11-03T14:59:14.790Z,30
2016-11-03T15:00:23.807Z,30
2016-11-03T15:01:32.506Z,25
2016-11-03T15:02:41.204Z,25
2016-11-03T15:03:49.906Z,25
2016-11-03T15:04:58.596Z,25
2016-11-03T15:06:07.288Z,20
2016-11-03T15:07:15.986Z,20
2016-11-03T15:08:24.707Z,20
2016-11-03T15:09:33.397Z,15
2016-11-03T15:10:42.086Z,15
2016-11-03T15:11:51.097Z,15
2016-11-03T15:12:59.792Z,15
2016-11-03T15:14:08.490Z,15
2016-11-03T15:15:17.183Z,10
2016-11-03T15:16:25.877Z,10
2016-11-03T15:17:34.881Z,10
2016-11-03T15:18:43.582Z,10
2016-11-03T15:19:52.275Z,5
2016-11-03T15:21:00.964Z,5
2016-11-03T15:22:09.662Z,5
2016-11-03T15:23:18.350Z,5
2016-11-03T15:24:27.053Z,5
2016-11-03T15:25:35.747Z,5
2016-11-03T15:26:44.443Z,5
2016-11-03T15:27:53.145Z,0
2016-11-03T15:29:01.837Z,0
2016-11-03T15:30:10.535Z,0
2016-11-03T15:31:19.258Z,0
2016-11-03T15:32:27.947Z,0
2016-11-03T15:33:36.646Z,0
2016-11-03T15:34:45.383Z,0
2016-11-03T15:35:54.120Z,0
2016-11-03T15:37:02.816Z,0
2016-11-03T15:38:11.827Z,0
2016-11-03T15:39:20.522Z,0
2016-11-03T15:40:29.790Z,0
2016-11-03T15:41:38.483Z,0
2016-11-03T15:42:47.204Z,0
2016-11-03T15:43:55.903Z,0
2016-11-03T15:45:04.597Z,0
2016-11-03T15:46:13.287Z,0
2016-11-03T15:47:21.987Z,0
2016-11-03T15:48:30.682Z,0
2016-11-03T15:49:39.380Z,0
2016-11-03T15:50:48.079Z,0
2016-11-03T15:51:56.770Z,0
2016-11-03T15:53:05.489Z,0
2016-11-03T15:54:14.187Z,0
2016-11-03T15:55:22.884Z,0
2016-11-03T15:56:31.588Z,0
2016-11-03T15:57:40.312Z,0
2016-11-03T15:58:49.056Z,0
2016-11-03T15:59:57.747Z,0
2016-11-03T16:01:06.438Z,0
2016-11-03T16:02:15.137Z,0
2016-11-03T16:03:23.833Z,0
2016-11-03T16:04:32.523Z,0
2016-11-03T16:05:41.220Z,0
2016-11-03T16:06:49.912Z,0
2016-11-03T16:07:58.600Z,0
2016-11-03T16:09:07.296Z,0
2016-11-03T16:10:15.988Z,0
2016-11-03T16:11:24.679Z,0
2016-11-03T16:12:33.373Z,0
2016-11-03T16:13:42.384Z,0
2016-11-03T16:14:51.080Z,0
2016-11-03T16:15:59.771Z,0
2016-11-03T16:17:08.465Z,0
2016-11-03T16:18:17.163Z,0
2016-11-03T16:19:25.851Z,0
2016-11-03T16:20:34.538Z,0
2016-11-03T16:21:43.243Z,0
2016-11-03T16:22:51.937Z,0